createdAt,value
2019-05-10T00:02:09.908Z,10.50
2019-05-10T00:04:54.883Z,10.50
2019-05-10T00:07:40.064Z,10.40
2019-05-10T00:10:06.769Z,10.40
2019-05-10T00:12:51.707Z,10.40
2019-05-10T00:15:20.672Z,10.30
2019-05-10T00:17:47.932Z,10.30
2019-05-10T00:20:14.968Z,10.20
2019-05-10T00:22:41.861Z,10.30
2019-05-10T00:25:09.020Z,10.20
2019-05-10T00:27:35.787Z,10.10
2019-05-10T00:30:03.335Z,10.10
2019-05-10T00:32:30.203Z,10.10
2019-05-10T00:34:56.951Z,10.10
2019-05-10T00:37:23.847Z,10.10
2019-05-10T00:39:50.611Z,10.00
2019-05-10T00:42:17.476Z,10.10
2019-05-10T00:44:44.231Z,10.00
2019-05-10T00:47:11.116Z,10.00
2019-05-10T00:49:38.157Z,10.10
2019-05-10T00:52:05.187Z,10.00
2019-05-10T00:54:31.979Z,10.00
2019-05-10T00:56:58.971Z,9.90
2019-05-10T00:59:25.737Z,9.90
2019-05-10T01:01:52.680Z,9.90
2019-05-10T01:04:19.560Z,9.90
2019-05-10T01:06:46.579Z,9.90
2019-05-10T01:09:13.581Z,10.00
2019-05-10T01:11:40.676Z,9.90
2019-05-10T01:14:07.629Z,10.00
2019-05-10T01:16:34.409Z,10.00
2019-05-10T01:19:01.199Z,10.10
2019-05-10T01:21:28.108Z,10.10
2019-05-10T01:23:54.890Z,10.20
2019-05-10T01:26:21.750Z,10.20
2019-05-10T01:28:48.579Z,10.20
2019-05-10T01:31:15.547Z,10.20
2019-05-10T01:33:42.441Z,10.20
2019-05-10T01:36:09.209Z,10.20
2019-05-10T01:38:36.119Z,10.10
2019-05-10T01:41:03.164Z,10.20
2019-05-10T01:43:30.310Z,10.20
2019-05-10T01:45:57.082Z,10.10
2019-05-10T01:48:23.865Z,10.10
2019-05-10T01:50:50.639Z,10.20
2019-05-10T01:53:17.515Z,10.20
2019-05-10T01:55:52.224Z,10.20
2019-05-10T01:58:13.338Z,10.10
2019-05-10T02:00:40.048Z,10.00
2019-05-10T02:03:06.769Z,10.00
2019-05-10T02:05:33.536Z,10.00
2019-05-10T02:08:00.310Z,10.00
2019-05-10T02:10:27.340Z,9.80
2019-05-10T02:12:54.279Z,10.00
2019-05-10T02:15:21.119Z,9.90
2019-05-10T02:17:47.982Z,9.90
2019-05-10T02:20:15.124Z,9.90
2019-05-10T02:22:41.995Z,9.80
2019-05-10T02:25:09.446Z,9.80
2019-05-10T02:27:36.323Z,9.90
2019-05-10T02:30:04.503Z,9.60
2019-05-10T02:32:31.375Z,9.60
2019-05-10T02:34:58.217Z,9.70
2019-05-10T02:37:25.088Z,9.60
2019-05-10T02:39:51.813Z,9.50
2019-05-10T02:42:18.547Z,9.50
2019-05-10T02:44:45.415Z,9.50
2019-05-10T02:47:12.160Z,9.40
2019-05-10T02:49:39.015Z,9.40
2019-05-10T02:52:06.191Z,9.40
2019-05-10T02:54:33.167Z,9.30
2019-05-10T02:57:01.876Z,9.30
2019-05-10T02:59:29.570Z,9.30
2019-05-10T03:01:56.327Z,9.20
2019-05-10T03:04:24.601Z,9.20
2019-05-10T03:07:01.380Z,9.10
2019-05-10T03:09:30.452Z,9.10
2019-05-10T03:12:02.509Z,9.10
2019-05-10T03:14:33.648Z,9.10
2019-05-10T03:17:02.755Z,9.00
2019-05-10T03:19:30.655Z,9.00
2019-05-10T03:22:05.492Z,9.00
2019-05-10T03:24:32.505Z,9.00
2019-05-10T03:26:59.387Z,9.00
2019-05-10T03:29:26.405Z,8.90
2019-05-10T03:31:53.432Z,8.90
2019-05-10T03:34:20.437Z,8.80
2019-05-10T03:36:47.649Z,8.90
2019-05-10T03:39:14.583Z,8.90
2019-05-10T03:41:41.603Z,8.80
2019-05-10T03:44:08.339Z,8.80
2019-05-10T03:46:35.724Z,8.70
2019-05-10T03:49:02.693Z,8.80
2019-05-10T03:51:29.432Z,8.80
2019-05-10T03:53:56.212Z,8.70
2019-05-10T03:56:22.972Z,8.70
2019-05-10T03:58:49.700Z,8.60
2019-05-10T04:01:16.631Z,8.60
2019-05-10T04:04:03.125Z,8.60
2019-05-10T04:06:29.860Z,8.10
2019-05-10T04:08:56.843Z,8.40
2019-05-10T04:11:23.675Z,8.50
2019-05-10T04:13:50.584Z,8.50
2019-05-10T04:16:17.435Z,8.50
2019-05-10T04:18:44.400Z,8.50
2019-05-10T04:21:11.153Z,8.50
2019-05-10T04:23:37.885Z,8.50
2019-05-10T04:26:04.872Z,8.50
2019-05-10T04:28:31.589Z,8.50
2019-05-10T04:30:58.363Z,8.50
2019-05-10T04:33:25.126Z,8.50
2019-05-10T04:35:51.892Z,8.60
2019-05-10T04:38:18.773Z,8.60
2019-05-10T04:40:45.583Z,8.70
2019-05-10T04:43:12.632Z,8.80
2019-05-10T04:45:39.485Z,8.80
2019-05-10T04:48:06.222Z,8.90
2019-05-10T04:50:32.987Z,8.90
2019-05-10T04:52:59.797Z,8.90
2019-05-10T04:55:26.555Z,9.00
2019-05-10T04:57:53.334Z,9.00
2019-05-10T05:00:20.059Z,9.00
2019-05-10T05:02:46.815Z,9.10
2019-05-10T05:05:14.068Z,9.10
2019-05-10T05:07:40.828Z,9.10
2019-05-10T05:10:07.741Z,9.10
2019-05-10T05:12:34.713Z,9.10
2019-05-10T05:15:01.649Z,9.20
2019-05-10T05:17:28.505Z,9.10
2019-05-10T05:19:55.360Z,9.10
2019-05-10T05:22:22.128Z,9.20
2019-05-10T05:24:49.003Z,9.20
2019-05-10T05:27:15.891Z,9.30
2019-05-10T05:29:42.620Z,9.30
2019-05-10T05:32:13.113Z,9.30
2019-05-10T05:34:38.702Z,9.40
2019-05-10T05:37:05.647Z,9.50
2019-05-10T05:39:32.486Z,9.70
2019-05-10T05:41:59.443Z,9.70
2019-05-10T05:44:27.847Z,10.00
2019-05-10T05:46:54.807Z,10.10
2019-05-10T05:49:21.793Z,10.30
2019-05-10T05:51:48.675Z,10.40
2019-05-10T05:54:20.886Z,10.50
2019-05-10T05:56:49.869Z,10.80
2019-05-10T05:59:17.619Z,10.90
2019-05-10T06:01:41.887Z,11.10
2019-05-10T06:04:12.216Z,11.30
2019-05-10T06:06:37.564Z,11.50
2019-05-10T06:09:05.603Z,11.70
2019-05-10T06:11:35.816Z,12.20
2019-05-10T06:14:03.942Z,12.30
2019-05-10T06:16:29.859Z,12.80
2019-05-10T06:18:56.739Z,13.10
2019-05-10T06:21:26.559Z,13.70
2019-05-10T06:23:52.276Z,14.30
2019-05-10T06:26:26.608Z,14.20
2019-05-10T06:29:04.650Z,14.40
2019-05-10T06:31:16.559Z,15.00
2019-05-10T06:33:45.086Z,15.10
2019-05-10T06:36:12.164Z,15.00
2019-05-10T06:38:38.933Z,14.80
2019-05-10T06:41:09.988Z,14.90
2019-05-10T06:43:34.587Z,15.10
2019-05-10T06:46:01.584Z,15.60
2019-05-10T06:48:33.003Z,16.80
2019-05-10T06:50:57.098Z,17.10
2019-05-10T06:53:24.158Z,17.50
2019-05-10T06:55:50.887Z,16.90
2019-05-10T06:58:17.963Z,16.90
2019-05-10T07:00:47.307Z,16.80
2019-05-10T07:03:13.332Z,16.50
2019-05-10T07:05:40.087Z,16.80
2019-05-10T07:08:14.920Z,17.70
2019-05-10T07:10:35.915Z,18.10
2019-05-10T07:13:06.411Z,17.40
2019-05-10T07:15:35.953Z,17.10
2019-05-10T07:18:00.211Z,17.90
2019-05-10T07:20:29.555Z,18.60
2019-05-10T07:23:00.067Z,18.90
2019-05-10T07:25:24.615Z,18.60
2019-05-10T07:27:51.424Z,18.30
2019-05-10T07:30:31.863Z,18.40
2019-05-10T07:32:59.787Z,18.70
2019-05-10T07:35:30.894Z,18.80
2019-05-10T07:37:56.547Z,18.30
2019-05-10T07:40:23.537Z,18.60
2019-05-10T07:42:50.375Z,19.10
2019-05-10T07:45:18.617Z,18.70
2019-05-10T07:47:45.913Z,17.80
2019-05-10T07:50:13.217Z,17.90
2019-05-10T07:52:43.402Z,18.20
2019-05-10T07:55:10.549Z,19.30
2019-05-10T07:57:37.903Z,19.70
2019-05-10T08:00:06.117Z,19.70
2019-05-10T08:02:33.227Z,20.00
2019-05-10T08:05:04.865Z,20.20
2019-05-10T08:07:29.470Z,20.70
2019-05-10T08:09:56.504Z,20.30
2019-05-10T08:12:23.355Z,20.10
2019-05-10T08:14:53.351Z,20.10
2019-05-10T08:17:19.244Z,20.10
2019-05-10T08:19:46.161Z,20.20
2019-05-10T08:22:14.825Z,19.70
2019-05-10T08:24:46.420Z,19.10
2019-05-10T08:27:14.493Z,19.60
2019-05-10T08:29:39.481Z,19.90
2019-05-10T08:32:06.331Z,20.30
2019-05-10T08:34:35.648Z,21.10
2019-05-10T08:37:02.608Z,21.30
2019-05-10T08:39:34.830Z,20.90
2019-05-10T08:42:04.915Z,20.00
2019-05-10T08:44:27.112Z,20.10
2019-05-10T08:46:53.954Z,20.70
2019-05-10T08:49:25.268Z,21.30
2019-05-10T08:51:50.061Z,22.10
2019-05-10T08:54:18.107Z,22.90
2019-05-10T08:56:46.737Z,22.60
2019-05-10T08:59:16.377Z,22.60
2019-05-10T09:01:46.422Z,22.70
2019-05-10T09:04:13.776Z,23.40
2019-05-10T09:06:42.020Z,23.60
2019-05-10T09:09:09.161Z,23.60
2019-05-10T09:11:36.027Z,22.40
2019-05-10T09:14:03.314Z,21.20
2019-05-10T09:16:39.286Z,20.60
2019-05-10T09:18:59.157Z,20.50
2019-05-10T09:21:26.058Z,20.00
2019-05-10T09:24:01.124Z,19.90
2019-05-10T09:26:22.727Z,20.80
2019-05-10T09:28:55.570Z,21.50
2019-05-10T09:31:22.668Z,21.50
2019-05-10T09:33:49.431Z,21.90
2019-05-10T09:36:16.339Z,22.00
2019-05-10T09:38:46.245Z,22.50
2019-05-10T09:41:12.203Z,22.50
2019-05-10T09:43:40.593Z,21.90
2019-05-10T09:46:07.852Z,20.90
2019-05-10T09:48:34.711Z,20.60
2019-05-10T09:51:04.153Z,20.00
2019-05-10T09:53:30.745Z,20.10
2019-05-10T09:56:02.508Z,21.50
2019-05-10T09:58:28.547Z,22.20
2019-05-10T10:01:12.847Z,22.80
2019-05-10T10:03:23.994Z,23.20
2019-05-10T10:05:55.360Z,22.20
2019-05-10T10:08:19.626Z,21.10
2019-05-10T10:10:47.539Z,21.00
2019-05-10T10:13:32.570Z,20.60
2019-05-10T10:15:46.854Z,20.50
2019-05-10T10:18:12.515Z,20.20
2019-05-10T10:20:45.038Z,21.00
2019-05-10T10:23:09.635Z,21.30
2019-05-10T10:25:40.526Z,20.00
2019-05-10T10:28:10.409Z,19.30
2019-05-10T10:30:34.219Z,19.60
2019-05-10T10:33:05.682Z,20.70
2019-05-10T10:35:29.995Z,22.30
2019-05-10T10:37:57.466Z,23.40
2019-05-10T10:40:27.945Z,22.70
2019-05-10T10:42:54.559Z,22.80
2019-05-10T10:45:21.319Z,22.40
2019-05-10T10:47:48.195Z,22.60
2019-05-10T10:50:17.225Z,23.00
2019-05-10T10:52:44.457Z,22.70
2019-05-10T10:55:13.423Z,22.40
2019-05-10T10:57:40.279Z,22.50
2019-05-10T11:00:08.275Z,22.30
2019-05-10T11:02:35.020Z,23.20
2019-05-10T11:05:01.819Z,23.40
2019-05-10T11:07:30.427Z,22.60
2019-05-10T11:10:13.380Z,22.00
2019-05-10T11:12:26.433Z,20.80
2019-05-10T11:14:53.163Z,19.70
2019-05-10T11:17:19.913Z,19.90
2019-05-10T11:19:46.663Z,20.80
2019-05-10T11:22:13.944Z,22.30
2019-05-10T11:24:40.815Z,23.60
2019-05-10T11:27:13.071Z,23.50
2019-05-10T11:29:36.746Z,22.30
2019-05-10T11:32:15.356Z,22.60
2019-05-10T11:34:37.578Z,23.30
2019-05-10T11:37:01.065Z,23.60
2019-05-10T11:39:32.961Z,23.50
2019-05-10T11:42:02.248Z,22.40
2019-05-10T11:44:25.905Z,22.60
2019-05-10T11:46:52.986Z,22.90
2019-05-10T11:49:20.479Z,23.60
2019-05-10T11:51:47.923Z,24.20
2019-05-10T11:54:16.216Z,25.20
2019-05-10T11:56:42.960Z,25.30
2019-05-10T11:59:12.366Z,24.50
2019-05-10T12:01:41.647Z,24.20
2019-05-10T12:04:13.138Z,23.20
2019-05-10T12:06:41.249Z,22.60
2019-05-10T12:09:05.339Z,22.30
2019-05-10T12:11:33.814Z,22.40
2019-05-10T12:14:02.427Z,22.30
2019-05-10T12:16:33.144Z,22.80
2019-05-10T12:19:10.399Z,23.20
2019-05-10T12:21:27.299Z,22.80
2019-05-10T12:23:56.201Z,22.40
2019-05-10T12:28:51.703Z,21.80
2019-05-10T12:31:21.083Z,22.20
2019-05-10T12:33:47.563Z,22.20
2019-05-10T12:36:25.496Z,21.40
2019-05-10T12:38:43.007Z,21.00
2019-05-10T12:41:10.061Z,20.90
2019-05-10T12:43:36.999Z,20.50
2019-05-10T12:46:03.941Z,20.10
2019-05-10T12:48:31.701Z,19.70
2019-05-10T12:51:04.941Z,19.80
2019-05-10T12:53:28.171Z,19.80
2019-05-10T12:55:55.179Z,19.90
2019-05-10T12:58:22.056Z,19.70
2019-05-10T13:00:52.603Z,19.60
2019-05-10T13:03:19.581Z,19.50
2019-05-10T13:05:52.388Z,18.10
2019-05-10T13:08:14.890Z,19.60
2019-05-10T13:10:43.282Z,19.80
2019-05-10T13:13:10.722Z,19.70
2019-05-10T13:15:37.515Z,19.70
2019-05-10T13:18:04.670Z,19.50
2019-05-10T13:20:36.699Z,19.60
2019-05-10T13:23:02.641Z,19.60
2019-05-10T13:25:29.619Z,19.70
2019-05-10T13:27:56.495Z,19.90
2019-05-10T13:30:28.232Z,19.50
2019-05-10T13:32:58.857Z,19.30
2019-05-10T13:35:21.096Z,19.40
2019-05-10T13:37:47.863Z,19.70
2019-05-10T13:40:15.111Z,19.80
2019-05-10T13:42:45.748Z,20.00
2019-05-10T13:45:11.443Z,19.80
2019-05-10T13:47:38.303Z,19.70
2019-05-10T13:50:05.818Z,19.60
2019-05-10T13:52:37.496Z,19.40
2019-05-10T13:55:01.910Z,19.40
2019-05-10T13:57:28.609Z,19.20
2019-05-10T13:59:57.349Z,19.40
2019-05-10T14:02:32.460Z,18.30
2019-05-10T14:04:53.541Z,19.20
2019-05-10T14:07:20.409Z,18.50
2019-05-10T14:09:47.169Z,19.20
2019-05-10T14:12:16.338Z,19.20
2019-05-10T14:14:42.942Z,19.30
2019-05-10T14:17:09.711Z,19.10
2019-05-10T14:19:36.739Z,18.90
2019-05-10T14:22:03.703Z,19.00
2019-05-10T14:24:30.452Z,19.20
2019-05-10T14:26:59.343Z,19.20
2019-05-10T14:29:34.392Z,19.40
2019-05-10T14:31:54.812Z,19.30
2019-05-10T14:34:21.535Z,19.50
2019-05-10T14:36:48.405Z,19.40
2019-05-10T14:39:15.136Z,19.40
2019-05-10T14:41:45.171Z,19.40
2019-05-10T14:44:10.807Z,19.60
2019-05-10T14:46:37.851Z,19.50
2019-05-10T14:49:09.799Z,19.70
2019-05-10T14:51:49.639Z,19.50
2019-05-10T14:54:06.791Z,19.40
2019-05-10T14:56:34.539Z,19.30
2019-05-10T14:59:01.413Z,19.30
2019-05-10T15:01:28.415Z,19.40
2019-05-10T15:03:55.155Z,19.60
2019-05-10T15:06:21.947Z,19.50
2019-05-10T15:08:48.808Z,19.60
2019-05-10T15:11:15.679Z,19.40
2019-05-10T15:13:42.539Z,19.40
2019-05-10T15:16:12.826Z,19.30
2019-05-10T15:18:38.171Z,19.30
2019-05-10T15:21:05.097Z,19.30
2019-05-10T15:23:31.843Z,19.30
2019-05-10T15:26:10.686Z,19.20
2019-05-10T15:28:34.654Z,19.30
2019-05-10T15:30:56.649Z,19.30
2019-05-10T15:33:23.415Z,19.30
2019-05-10T15:35:51.890Z,19.40
2019-05-10T15:38:19.303Z,19.50
2019-05-10T15:40:46.319Z,19.60
2019-05-10T15:43:16.987Z,19.40
2019-05-10T15:45:46.117Z,19.30
2019-05-10T15:48:10.820Z,19.20
2019-05-10T15:50:38.471Z,19.00
2019-05-10T15:53:06.563Z,18.80
2019-05-10T15:55:33.543Z,18.50
2019-05-10T15:58:00.355Z,18.50
2019-05-10T16:00:37.387Z,18.60
2019-05-10T16:02:56.478Z,18.50
2019-05-10T16:05:34.836Z,18.60
2019-05-10T16:07:53.156Z,18.70
2019-05-10T16:10:20.445Z,18.60
2019-05-10T16:12:47.211Z,18.70
2019-05-10T16:15:20.095Z,18.80
2019-05-10T16:17:42.961Z,18.90
2019-05-10T16:20:10.072Z,18.80
2019-05-10T16:22:37.027Z,18.60
2019-05-10T16:25:04.108Z,18.50
2019-05-10T16:27:33.916Z,18.60
2019-05-10T16:29:59.487Z,18.50
2019-05-10T16:32:29.258Z,18.80
2019-05-10T16:34:55.283Z,18.70
2019-05-10T16:37:22.131Z,18.60
2019-05-10T16:39:48.971Z,18.60
2019-05-10T16:42:15.887Z,18.50
2019-05-10T16:44:42.883Z,18.50
2019-05-10T16:47:09.619Z,18.50
2019-05-10T16:49:36.476Z,18.50
2019-05-10T16:52:03.299Z,18.30
2019-05-10T16:54:30.336Z,18.20
2019-05-10T16:57:01.404Z,18.30
2019-05-10T16:59:29.902Z,18.40
2019-05-10T17:02:03.176Z,18.50
2019-05-10T17:04:23.815Z,18.40
2019-05-10T17:06:50.687Z,18.40
2019-05-10T17:09:19.496Z,18.30
2019-05-10T17:11:47.344Z,18.10
2019-05-10T17:14:18.038Z,17.90
2019-05-10T17:16:44.546Z,18.00
2019-05-10T17:19:11.422Z,17.90
2019-05-10T17:21:38.372Z,17.90
2019-05-10T17:24:05.219Z,18.00
2019-05-10T17:26:32.897Z,17.80
2019-05-10T17:28:59.963Z,17.80
2019-05-10T17:31:26.768Z,17.80
2019-05-10T17:33:53.880Z,17.80
2019-05-10T17:36:21.545Z,17.90
2019-05-10T17:38:53.487Z,17.90
2019-05-10T17:41:19.451Z,17.90
2019-05-10T17:43:59.857Z,17.80
2019-05-10T17:46:33.861Z,16.40
2019-05-10T17:49:03.169Z,17.70
2019-05-10T17:51:30.082Z,17.60
2019-05-10T17:54:01.492Z,17.60
2019-05-10T17:56:25.727Z,17.60
2019-05-10T17:58:52.600Z,17.50
2019-05-10T18:01:19.375Z,17.40
2019-05-10T18:03:46.270Z,17.40
2019-05-10T18:06:23.422Z,17.40
2019-05-10T18:08:41.748Z,17.40
2019-05-10T18:11:08.515Z,17.30
2019-05-10T18:13:35.641Z,17.30
2019-05-10T18:16:04.662Z,17.30
2019-05-10T18:18:35.159Z,17.20
2019-05-10T18:21:01.692Z,17.20
2019-05-10T18:23:28.423Z,17.10
2019-05-10T18:25:58.591Z,17.00
2019-05-10T18:28:24.088Z,16.90
2019-05-10T18:30:51.100Z,16.80
2019-05-10T18:33:18.031Z,16.80
2019-05-10T18:35:47.524Z,16.70
2019-05-10T18:38:15.585Z,16.70
2019-05-10T18:40:42.325Z,16.60
2019-05-10T18:43:09.325Z,16.60
2019-05-10T18:45:36.319Z,16.50
2019-05-10T18:48:03.294Z,16.50
2019-05-10T18:50:30.188Z,16.40
2019-05-10T18:52:56.927Z,16.20
2019-05-10T18:55:23.806Z,16.30
2019-05-10T18:57:52.580Z,16.20
2019-05-10T19:00:22.909Z,16.10
2019-05-10T19:02:49.668Z,16.10
2019-05-10T19:05:17.667Z,16.00
2019-05-10T19:07:44.642Z,15.90
2019-05-10T19:10:11.810Z,15.90
2019-05-10T19:12:39.022Z,15.80
2019-05-10T19:15:09.165Z,15.80
2019-05-10T19:17:40.312Z,15.80
2019-05-10T19:20:09.373Z,15.70
2019-05-10T19:22:33.899Z,15.60
2019-05-10T19:25:10.833Z,15.50
2019-05-10T19:27:29.533Z,16.20
2019-05-10T19:29:56.280Z,15.20
2019-05-10T19:32:23.079Z,15.20
2019-05-10T19:34:57.134Z,15.10
2019-05-10T19:37:28.887Z,15.00
2019-05-10T19:39:47.544Z,15.00
2019-05-10T19:42:14.412Z,14.90
2019-05-10T19:44:42.303Z,14.90
2019-05-10T19:47:11.063Z,14.80
2019-05-10T19:49:38.046Z,14.70
2019-05-10T19:52:04.970Z,14.70
2019-05-10T19:54:31.743Z,14.60
2019-05-10T19:56:58.493Z,14.10
2019-05-10T19:59:25.339Z,14.60
2019-05-10T20:01:52.223Z,14.50
2019-05-10T20:04:18.999Z,14.40
2019-05-10T20:06:46.041Z,14.40
2019-05-10T20:09:12.923Z,14.40
2019-05-10T20:11:39.947Z,14.30
2019-05-10T20:14:07.568Z,14.30
2019-05-10T20:16:51.018Z,14.30
2019-05-10T20:19:03.822Z,14.30
2019-05-10T20:21:30.695Z,14.30
2019-05-10T20:23:57.608Z,14.10
2019-05-10T20:26:24.531Z,14.20
2019-05-10T20:28:51.264Z,14.10
2019-05-10T20:31:18.851Z,14.10
2019-05-10T20:33:45.644Z,14.00
2019-05-10T20:36:12.505Z,13.90
2019-05-10T20:38:39.329Z,13.90
2019-05-10T20:41:06.255Z,13.90
2019-05-10T20:43:33.015Z,13.90
2019-05-10T20:45:59.887Z,13.90
2019-05-10T20:48:26.627Z,13.90
2019-05-10T20:50:53.666Z,13.90
2019-05-10T20:53:20.620Z,13.90
2019-05-10T20:55:47.703Z,13.80
2019-05-10T20:58:14.660Z,13.90
2019-05-10T21:00:41.574Z,13.90
2019-05-10T21:03:08.306Z,13.90
2019-05-10T21:05:35.204Z,13.90
2019-05-10T21:08:16.068Z,13.90
2019-05-10T21:10:30.599Z,13.90
2019-05-10T21:12:57.539Z,13.80
2019-05-10T21:15:24.857Z,13.80
2019-05-10T21:17:51.603Z,13.80
2019-05-10T21:20:18.344Z,13.70
2019-05-10T21:22:45.298Z,13.70
2019-05-10T21:25:12.617Z,13.70
2019-05-10T21:27:39.357Z,13.70
2019-05-10T21:30:06.643Z,13.70
2019-05-10T21:32:33.394Z,13.70
2019-05-10T21:35:00.410Z,13.70
2019-05-10T21:37:27.184Z,13.70
2019-05-10T21:39:54.071Z,13.70
2019-05-10T21:42:20.943Z,13.70
2019-05-10T21:44:47.937Z,12.50
2019-05-10T21:47:14.688Z,13.70
2019-05-10T21:49:41.407Z,13.70
2019-05-10T21:52:08.386Z,13.60
2019-05-10T21:54:35.351Z,13.60
2019-05-10T21:57:02.231Z,13.40
2019-05-10T21:59:28.959Z,13.50
2019-05-10T22:01:56.039Z,13.30
2019-05-10T22:04:22.803Z,13.30
2019-05-10T22:06:49.808Z,13.30
2019-05-10T22:09:16.576Z,13.30
2019-05-10T22:11:43.543Z,13.30
2019-05-10T22:14:10.428Z,13.30
2019-05-10T22:16:37.192Z,13.30
2019-05-10T22:19:04.046Z,13.20
2019-05-10T22:21:31.027Z,13.10
2019-05-10T22:23:58.037Z,13.00
2019-05-10T22:26:24.921Z,13.00
2019-05-10T22:28:51.663Z,12.90
2019-05-10T22:31:18.570Z,12.90
2019-05-10T22:33:45.336Z,12.80
2019-05-10T22:36:12.187Z,12.80
2019-05-10T22:38:38.943Z,12.80
2019-05-10T22:41:05.850Z,12.80
2019-05-10T22:43:32.682Z,12.80
2019-05-10T22:45:59.579Z,12.70
2019-05-10T22:48:26.436Z,12.70
2019-05-10T22:50:53.192Z,12.70
2019-05-10T22:53:20.116Z,12.70
2019-05-10T22:55:46.853Z,12.70
2019-05-10T22:58:13.764Z,12.80
2019-05-10T23:00:40.596Z,12.80
2019-05-10T23:03:07.355Z,12.80
2019-05-10T23:05:34.092Z,12.90
2019-05-10T23:08:00.949Z,12.90
2019-05-10T23:10:27.957Z,12.80
2019-05-10T23:12:54.847Z,12.70
2019-05-10T23:15:21.831Z,12.60
2019-05-10T23:17:48.546Z,12.70
2019-05-10T23:20:15.555Z,12.70
2019-05-10T23:22:42.439Z,12.80
2019-05-10T23:25:09.481Z,12.80
2019-05-10T23:27:36.359Z,12.70
2019-05-10T23:30:04.071Z,12.70
2019-05-10T23:32:30.951Z,12.70
2019-05-10T23:34:57.723Z,12.70
2019-05-10T23:37:24.592Z,12.70
2019-05-10T23:39:51.432Z,12.70
2019-05-10T23:42:18.444Z,12.70
2019-05-10T23:44:45.295Z,12.60
2019-05-10T23:47:12.229Z,12.60
2019-05-10T23:49:38.996Z,12.60
2019-05-10T23:52:06.030Z,12.60
2019-05-10T23:54:32.871Z,12.60
2019-05-10T23:56:59.664Z,12.50
2019-05-10T23:59:26.607Z,12.60
